DAOR/CBH METAR and TAF weather

Enter ICAO airport designator
Station Type Date Time Source
DAOR METAR 2020/10/20 17:00 UTC NOAA

DAOR 201700Z 16006KT CAVOK 24/M08 Q1020


Station Type Date Time Source
DAOR Decoded METAR 2020/10/20 17:00 UTC NOAA

Bechar, Algeria (DAOR) 31-37N 002-14W 773M
Oct 20, 2020 - 01:00 PM EDT / 2020.10.20 1700 UTC
Wind: from the SSE (160 degrees) at 7 MPH (6 KT):0
Visibility: greater than 7 mile(s):0
Temperature: 75 F (24 C)
Dew Point: 17 F (-8 C)
Relative Humidity: 11%
Pressure (altimeter): 30.12 in. Hg (1020 hPa)
ob: DAOR 201700Z 16006KT CAVOK 24/M08 Q1020
cycle: 17

Station Type Date Time Source
DAOR TAF 2017/11/09 18:03 UTC NOAA

TAF DAOR 091700Z 0918/1009 35010KT 6000 FEW033 SCT100
TEMPO 0918/0924 3000 BLSA PROB40
TEMPO 0918/0924 35020G35KT 2000 -TSRA FEW030CB

Example: see airport list